Dzhambejty, Kazakhstan
Current Conditions -  °F | °C
As of 2:30 PM on Thursday 18 Dec 2014 (Local Time) from UARR Reporting Station
Haze Haze  
Wind Chill: -11°   Ceiling: 300
Heat Index: -4°   Visibility: 2.8mi
Dew Point: -5°   Wind: 13mph
Humidity: 93%   Direction: 170°S
Pressure: 30.24"   Gusts: NA
Location:  50.25°N, 52.57°E
Report Text: UARR 181030Z 17006MPS 4500 BR OVC003 M04/M05 Q1024 R22/690335TEMPO 1000 -SG BR 0VC002 RMK QBB090 QFE765/1020
Loading
Personal Weather Stations






























Interactive Weather Map New forecast layout! Learn more

10-Day Weather Forecast

Advertisements
Track Severe Weather on mobile